Time;durP1;ratioP1;P1;durP2;ratioP2;P2;SDS_P1;SDS_P2;PMS_P1;PMS_P2;Temp;Humidity;BMP_temperature;BMP_pressure;BME280_temperature;BME280_humidity;BME280_pressure;Samples;Min_cycle;Max_cycle;Signal;HPM_P1;HPM_P2
2022/02/09 00:03:45;;;;;;;5.30;5.10;;;;;;;8.60;90.35;102363.53;5959512;23;20517;-70
2022/02/09 00:06:19;;;;;;;4.03;3.83;;;;;;;8.54;90.22;102369.72;5948129;24;20034;-69
2022/02/09 00:08:45;;;;;;;5.32;5.13;;;;;;;8.20;90.59;102304.00;5964633;23;20012;-69
2022/02/09 00:11:18;;;;;;;3.80;3.70;;;;;;;8.22;90.90;102312.69;5951470;23;20028;-70
2022/02/09 00:16:45;;;;;;;4.40;4.20;;;;;;;8.09;91.02;102285.00;5970227;23;19914;-70
2022/02/09 00:19:35;;;;;;;4.00;3.80;;;;;;;8.44;91.62;102349.84;5949162;24;20059;-70
2022/02/09 00:22:09;;;;;;;4.10;3.90;;;;;;;8.01;91.71;102277.25;5965317;23;20032;-70
2022/02/09 00:30:42;;;;;;;4.05;3.85;;;;;;;7.86;92.25;102260.09;5964719;23;20027;-70
2022/02/09 01:38:46;;;;;;;5.47;5.25;;;;;;;8.34;92.91;102322.94;6029330;23;20011;-69
2022/02/09 01:57:09;;;;;;;3.80;3.70;;;;;;;8.08;93.27;102267.56;6026487;23;20061;-70
2022/02/09 01:59:37;;;;;;;4.80;4.60;;;;;;;8.34;93.34;102298.53;6030804;23;20022;-70
2022/02/09 02:02:05;;;;;;;4.55;4.15;;;;;;;7.69;92.97;102192.38;6022923;23;20019;-70
2022/02/09 02:04:33;;;;;;;4.40;4.20;;;;;;;8.18;93.55;102272.63;5998242;23;20023;-70
2022/02/09 02:07:04;;;;;;;4.10;3.90;;;;;;;8.33;93.37;102294.19;6020798;23;20161;-70
2022/02/09 02:09:35;;;;;;;4.05;3.85;;;;;;;8.20;93.04;102288.31;6040118;23;20082;-71
2022/02/09 02:12:10;;;;;;;3.80;3.70;;;;;;;7.71;93.57;102190.63;6027931;23;20266;-70
2022/02/09 02:15:47;;;;;;;5.43;5.22;;;;;;;7.79;93.64;102214.88;6025030;23;20082;-70
2022/02/09 02:17:41;;;;;;;4.10;3.90;;;;;;;7.74;92.76;102202.78;6012067;23;20011;-70
2022/02/09 02:20:28;;;;;;;4.10;3.90;;;;;;;8.32;93.81;102288.09;6037255;23;20527;-70
2022/02/09 02:23:25;;;;;;;3.75;3.60;;;;;;;7.67;93.14;102180.25;5996472;23;20444;-69
2022/02/09 02:26:05;;;;;;;4.85;4.65;;;;;;;8.38;93.32;102272.28;6035793;23;20129;-69
2022/02/09 02:31:21;;;;;;;3.80;3.70;;;;;;;7.87;92.80;102186.00;6045442;23;20047;-68
2022/02/09 02:37:08;;;;;;;4.55;4.35;;;;;;;7.68;92.61;102135.81;6020573;23;20085;-70
2022/02/09 02:46:02;;;;;;;5.18;4.97;;;;;;;8.49;91.68;102260.78;6039268;23;20018;-69
2022/02/09 02:59:18;;;;;;;3.50;3.40;;;;;;;7.63;91.61;102129.78;6030065;23;20289;-71
2022/02/09 03:14:53;;;;;;;4.18;3.97;;;;;;;8.41;90.92;102245.22;6023518;23;20475;-70
2022/02/09 03:17:25;;;;;;;4.00;3.80;;;;;;;8.37;91.16;102252.22;6036358;23;20034;-70
2022/02/09 03:19:58;;;;;;;4.05;3.85;;;;;;;7.92;90.75;102162.41;6028755;23;20038;-70
2022/02/09 03:22:31;;;;;;;4.00;3.80;;;;;;;7.93;90.46;102174.59;6001288;23;20023;-70
2022/02/09 03:56:53;;;;;;;3.75;3.65;;;;;;;8.18;89.20;102203.78;6029220;23;20031;-70
2022/02/09 03:59:17;;;;;;;4.00;3.80;;;;;;;8.32;89.60;102233.16;6007156;23;20035;-70
2022/02/09 04:01:45;;;;;;;5.25;5.05;;;;;;;8.32;89.59;102232.31;6027319;23;20077;-69
2022/02/09 04:04:13;;;;;;;4.00;3.80;;;;;;;8.06;89.71;102189.16;6036557;23;20033;-70
2022/02/09 04:06:40;;;;;;;5.25;5.05;;;;;;;8.27;89.35;102237.59;6023612;23;20015;-70
2022/02/09 04:09:12;;;;;;;3.70;3.60;;;;;;;7.94;89.12;102169.34;6030860;23;20018;-70
2022/02/09 04:12:39;;;;;;;5.10;4.90;;;;;;;8.27;89.57;102224.53;6036004;23;20034;-69
2022/02/09 04:14:40;;;;;;;4.05;3.85;;;;;;;7.93;88.60;102154.53;6013092;23;20490;-69
2022/02/09 04:17:18;;;;;;;4.00;3.80;;;;;;;7.66;87.64;102106.22;6029399;23;20024;-70
2022/02/09 04:23:07;;;;;;;4.20;4.00;;;;;;;8.18;87.10;102186.34;6029245;23;20022;-70
2022/02/09 04:36:33;;;;;;;4.00;3.80;;;;;;;8.12;84.80;102167.28;6004334;23;20397;-70
2022/02/09 04:39:11;;;;;;;3.65;3.55;;;;;;;7.84;85.12;102132.91;6032947;23;20618;-69
2022/02/09 04:47:19;;;;;;;3.78;3.67;;;;;;;6.98;84.93;101984.63;6036328;23;20025;-70
2022/02/09 04:50:10;;;;;;;5.15;4.95;;;;;;;7.98;84.58;102155.31;6017060;23;20020;-69
2022/02/09 04:58:03;;;;;;;3.60;3.50;;;;;;;8.20;83.97;102183.69;5999117;23;20098;-71
2022/02/09 05:20:09;;;;;;;3.80;3.70;;;;;;;8.35;81.36;102196.47;5998165;23;20074;-69
2022/02/09 05:29:43;;;;;;;5.53;5.32;;;;;;;8.32;81.61;102191.31;6009218;23;20011;-70
2022/02/09 05:32:10;;;;;;;4.03;3.83;;;;;;;7.03;82.17;101973.25;6040665;23;20022;-70
2022/02/09 05:34:36;;;;;;;4.95;4.75;;;;;;;8.31;81.87;102192.19;6027652;23;20031;-70
2022/02/09 05:37:04;;;;;;;3.72;3.63;;;;;;;7.93;82.25;102128.38;6001147;23;20048;-69
2022/02/09 05:39:30;;;;;;;4.20;4.00;;;;;;;7.17;82.83;102011.28;6022381;23;20486;-70
2022/02/09 05:41:57;;;;;;;3.78;3.67;;;;;;;8.24;82.57;102185.38;5999335;23;20023;-69
2022/02/09 05:44:24;;;;;;;3.97;3.80;;;;;;;7.87;83.27;102138.94;6040383;23;20388;-70
2022/02/09 05:49:59;;;;;;;4.75;4.55;;;;;;;8.24;83.31;102187.09;6036964;23;20011;-70
2022/02/09 05:52:41;;;;;;;4.35;4.15;;;;;;;7.75;83.36;102102.59;5989050;23;20039;-70
2022/02/09 05:58:07;;;;;;;3.95;3.80;;;;;;;8.24;83.66;102205.41;6019201;23;21754;-70
2022/02/09 06:00:33;;;;;;;4.78;4.57;;;;;;;8.22;84.75;102189.75;6012904;23;20046;-70
2022/02/09 06:03:01;;;;;;;3.70;3.60;;;;;;;7.56;84.50;102082.00;6016205;23;20039;-70
2022/02/09 06:05:28;;;;;;;3.70;3.60;;;;;;;8.13;84.94;102174.22;6038243;23;20085;-70
2022/02/09 06:07:54;;;;;;;4.22;4.03;;;;;;;7.94;85.29;102130.13;6022227;23;20015;-70
2022/02/09 06:10:26;;;;;;;4.10;3.90;;;;;;;8.27;85.50;102182.66;5987913;23;20527;-70
2022/02/09 06:21:08;;;;;;;3.63;3.53;;;;;;;8.35;84.54;102180.78;5984701;23;20046;-70
2022/02/09 06:23:35;;;;;;;4.93;4.72;;;;;;;8.06;85.07;102136.00;6030781;23;20042;-70
2022/02/09 06:26:02;;;;;;;3.80;3.70;;;;;;;8.22;84.33;102155.75;6030105;23;20023;-70
2022/02/09 06:28:32;;;;;;;3.92;3.78;;;;;;;7.73;85.07;102100.00;5997865;23;20596;-70
2022/02/09 06:30:59;;;;;;;5.40;5.00;;;;;;;8.32;84.67;102191.31;6011109;23;20018;-70
2022/02/09 06:33:25;;;;;;;3.75;3.65;;;;;;;8.06;84.55;102143.84;5999684;23;20437;-70
2022/02/09 06:35:56;;;;;;;3.70;3.60;;;;;;;8.20;84.76;102152.31;5997569;23;20042;-70
2022/02/09 06:38:22;;;;;;;3.70;3.60;;;;;;;7.71;84.79;102065.19;6020365;23;20079;-70
2022/02/09 06:40:53;;;;;;;4.63;4.43;;;;;;;8.40;84.22;102204.25;5998732;23;20052;-70
2022/02/09 06:43:20;;;;;;;3.50;3.40;;;;;;;8.41;84.20;102176.31;6032545;23;20605;-70
2022/02/09 06:45:47;;;;;;;5.32;5.13;;;;;;;8.20;84.26;102162.78;6024696;23;20086;-70
2022/02/09 06:48:16;;;;;;;4.20;4.00;;;;;;;8.37;84.37;102183.38;6020357;23;20046;-70
2022/02/09 06:50:56;;;;;;;5.82;5.25;;;;;;;8.03;85.26;102130.84;6009749;23;20033;-70
2022/02/09 06:55:58;;;;;;;4.40;4.20;;;;;;;7.98;84.94;102125.72;5992708;23;20383;-70
2022/02/09 07:01:03;;;;;;;4.30;4.10;;;;;;;8.43;84.53;102191.13;6022718;23;20134;-70
2022/02/09 07:03:30;;;;;;;4.45;4.25;;;;;;;8.19;84.63;102150.56;6005019;23;20603;-70
2022/02/09 07:05:56;;;;;;;4.05;3.85;;;;;;;8.45;84.68;102199.81;6024026;23;20715;-70
2022/02/09 07:08:22;;;;;;;4.32;4.13;;;;;;;8.26;84.13;102160.03;6022503;23;20030;-70
2022/02/09 07:10:49;;;;;;;4.63;4.43;;;;;;;8.41;84.64;102195.53;5997086;23;20581;-70
2022/02/09 07:13:16;;;;;;;3.83;3.72;;;;;;;8.47;84.72;102197.16;6021430;23;20086;-70
2022/02/09 07:15:47;;;;;;;5.13;4.93;;;;;;;8.03;84.58;102113.38;5966416;23;20020;-70
2022/02/09 07:18:14;;;;;;;3.80;3.70;;;;;;;8.17;84.98;102134.06;6014526;23;20255;-70
2022/02/09 07:26:01;;;;;;;5.45;5.25;;;;;;;8.01;83.81;102096.03;5994632;23;20031;-70
2022/02/09 07:28:28;;;;;;;16.83;15.93;;;;;;;7.16;83.94;101946.06;5951198;23;20373;-70
2022/02/09 07:30:54;;;;;;;3.97;3.78;;;;;;;7.47;83.83;101992.50;5941275;23;20175;-70
2022/02/09 07:33:21;;;;;;;4.18;3.97;;;;;;;8.60;83.63;102188.19;5988049;23;20019;-70
2022/02/09 07:35:47;;;;;;;5.85;5.55;;;;;;;8.25;83.06;102126.06;6026589;23;20047;-69
2022/02/09 07:38:15;;;;;;;4.28;4.07;;;;;;;8.63;83.00;102187.25;6018576;23;20031;-70
2022/02/09 07:40:44;;;;;;;5.45;5.25;;;;;;;8.16;83.09;102117.50;5975073;23;20299;-70
2022/02/09 07:43:25;;;;;;;3.80;3.70;;;;;;;8.47;83.34;102182.31;6030766;23;20068;-70
2022/02/09 07:46:22;;;;;;;4.40;4.20;;;;;;;8.62;83.66;102207.34;6022078;23;20023;-70
2022/02/09 07:53:59;;;;;;;4.20;4.00;;;;;;;8.29;84.00;102146.88;6015682;23;20707;-69
2022/02/09 07:56:31;;;;;;;3.80;3.70;;;;;;;8.58;83.69;102200.44;6025023;23;20027;-69
2022/02/09 07:58:58;;;;;;;4.10;3.90;;;;;;;8.57;83.69;102199.56;6020219;23;20491;-70
2022/02/09 08:01:25;;;;;;;3.95;3.78;;;;;;;8.53;84.28;102192.66;6020416;23;20429;-70
2022/02/09 08:03:53;;;;;;;5.20;5.00;;;;;;;8.52;84.05;102195.31;6001925;23;20031;-70
2022/02/09 08:06:24;;;;;;;4.10;3.90;;;;;;;8.54;84.36;102193.56;5997751;23;20027;-70
2022/02/09 08:08:53;;;;;;;4.07;3.88;;;;;;;7.86;83.79;102079.75;6023271;23;20017;-70
2022/02/09 08:11:28;;;;;;;4.07;3.85;;;;;;;8.16;84.16;102129.72;5990783;23;20035;-70
2022/02/09 08:32:45;;;;;;;;;;;;;;;8.74;82.84;102200.97;5998952;23;20098;-69
2022/02/09 08:35:11;;;;;;;4.00;3.80;;;;;;;8.27;82.50;102117.28;6026004;23;19908;-69
2022/02/09 08:37:38;;;;;;;5.50;5.30;;;;;;;8.54;82.52;102152.53;5990315;23;21788;-69
2022/02/09 08:40:06;;;;;;;4.60;4.30;;;;;;;8.96;82.06;102206.63;6034187;23;20018;-69
2022/02/09 08:42:33;;;;;;;4.18;3.97;;;;;;;8.04;81.72;102072.41;6020458;23;20479;-70
2022/02/09 08:45:00;;;;;;;4.57;4.38;;;;;;;8.98;81.67;102210.09;6012235;23;20366;-69
2022/02/09 08:47:47;;;;;;;5.15;4.95;;;;;;;8.74;81.82;102191.38;6013516;23;20102;-70
2022/02/09 08:50:15;;;;;;;3.92;3.80;;;;;;;8.56;82.03;102139.44;5998604;23;20035;-69
2022/02/09 08:52:42;;;;;;;5.45;5.25;;;;;;;8.89;82.40;102205.06;6009723;23;20015;-70
2022/02/09 08:55:09;;;;;;;4.10;3.90;;;;;;;8.25;82.90;102121.69;6023412;23;20023;-70
2022/02/09 08:57:36;;;;;;;5.00;4.80;;;;;;;8.66;83.07;102175.00;5998321;23;20083;-70
2022/02/09 09:00:19;;;;;;;4.07;3.88;;;;;;;8.44;83.04;102137.94;6031985;23;20322;-70
2022/02/09 09:02:51;;;;;;;5.57;5.32;;;;;;;8.40;83.44;102112.69;5988659;23;20235;-70
2022/02/09 09:05:26;;;;;;;3.90;3.80;;;;;;;8.55;83.31;102159.47;6018248;23;20476;-69
2022/02/09 09:08:06;;;;;;;4.30;4.10;;;;;;;8.90;83.54;102199.78;5989253;23;20015;-69
2022/02/09 09:10:43;;;;;;;4.78;4.60;;;;;;;8.95;83.58;102197.91;6026887;23;20341;-69
2022/02/09 09:17:02;;;;;;;4.10;3.90;;;;;;;8.43;83.69;102111.78;6019288;23;20030;-69
2022/02/09 10:03:13;;;;;;;4.25;4.05;;;;;;;8.81;86.56;102155.47;5988080;23;20142;-72
2022/02/09 10:31:36;;;;;;;3.88;3.75;;;;;;;9.13;87.39;102191.41;6021638;23;20019;-75
2022/02/09 10:34:02;;;;;;;5.40;5.20;;;;;;;9.01;88.55;102194.31;6028558;23;20053;-74
2022/02/09 10:36:29;;;;;;;3.83;3.72;;;;;;;8.96;89.00;102198.78;6047937;23;20026;-74
2022/02/09 10:39:08;;;;;;;5.38;5.10;;;;;;;8.92;89.93;102199.72;5994968;23;20026;-75
2022/02/09 10:41:43;;;;;;;4.50;4.30;;;;;;;8.37;90.68;102117.97;6022344;23;20025;-75
2022/02/09 10:44:14;;;;;;;4.35;4.15;;;;;;;8.16;90.66;102093.97;5985277;23;20496;-75
2022/02/09 10:46:57;;;;;;;3.97;3.80;;;;;;;8.84;91.42;102191.19;6022491;23;20429;-70
2022/02/09 10:49:30;;;;;;;4.00;3.80;;;;;;;8.59;91.20;102157.66;6017225;23;20033;-71
2022/02/09 10:54:28;;;;;;;5.47;5.28;;;;;;;8.77;90.81;102182.59;6025233;23;20518;-71
2022/02/09 10:56:57;;;;;;;4.50;4.20;;;;;;;8.83;90.35;102189.47;6012772;23;20149;-71
2022/02/09 10:59:29;;;;;;;5.28;5.07;;;;;;;8.28;89.77;102085.03;6028306;23;20094;-71
2022/02/09 11:01:59;;;;;;;4.00;3.80;;;;;;;8.89;89.85;102182.34;6035596;23;20027;-71
2022/02/09 11:04:26;;;;;;;5.22;5.03;;;;;;;8.92;88.29;102190.16;6029035;23;20106;-71
2022/02/09 11:06:53;;;;;;;4.40;4.20;;;;;;;8.31;87.45;102084.94;6035663;23;20371;-71
2022/02/09 11:09:27;;;;;;;5.32;5.13;;;;;;;8.44;86.39;102103.91;5995729;23;20039;-71
2022/02/09 11:11:55;;;;;;;4.18;3.97;;;;;;;8.66;85.74;102120.03;6019308;23;20076;-71
2022/02/09 11:14:23;;;;;;;5.00;4.80;;;;;;;8.84;85.33;102142.31;5992855;23;20531;-71
2022/02/09 11:16:56;;;;;;;4.20;4.00;;;;;;;8.58;85.39;102070.47;6017998;23;20082;-70
2022/02/09 11:19:35;;;;;;;5.10;4.90;;;;;;;9.41;84.30;102163.75;6017256;23;20632;-71
2022/02/09 11:22:15;;;;;;;4.13;3.92;;;;;;;9.43;82.94;102135.75;5999740;23;20031;-71
2022/02/09 11:24:44;;;;;;;4.07;3.88;;;;;;;9.69;82.73;102135.09;6006795;23;20078;-70
2022/02/09 11:27:47;;;;;;;4.68;4.47;;;;;;;9.43;81.66;102070.25;6001062;23;20383;-70
2022/02/09 11:30:44;;;;;;;4.10;3.90;;;;;;;9.98;80.59;102152.69;5995953;23;20041;-69
2022/02/09 11:36:26;;;;;;;4.40;4.20;;;;;;;10.37;78.98;102152.56;6008782;23;20601;-69
2022/02/09 11:39:01;;;;;;;4.35;4.15;;;;;;;10.09;78.18;102095.56;5997325;23;20076;-71
2022/02/09 11:41:36;;;;;;;5.57;5.35;;;;;;;10.55;76.50;102152.03;6013698;23;20034;-71
2022/02/09 11:44:14;;;;;;;4.30;4.10;;;;;;;9.88;76.95;102089.16;5989689;23;20216;-72
2022/02/09 11:52:39;;;;;;;4.25;4.05;;;;;;;10.40;77.49;102154.22;6031652;23;20286;-72
2022/02/09 11:56:02;;;;;;;4.22;4.03;;;;;;;10.31;76.78;102080.09;6046943;23;20034;-72
2022/02/09 12:09:49;;;;;;;5.38;5.18;;;;;;;10.23;73.94;102131.91;6019935;23;20011;-71
2022/02/09 12:12:23;;;;;;;4.60;4.40;;;;;;;10.47;74.82;102122.50;5990931;23;20042;-71
2022/02/09 12:17:47;;;;;;;4.60;4.40;;;;;;;9.22;73.36;101901.38;5995569;23;20016;-70
2022/02/09 12:23:04;;;;;;;4.20;4.00;;;;;;;10.55;72.93;102102.16;5996029;23;20021;-72
2022/02/09 12:25:43;;;;;;;5.47;5.28;;;;;;;10.62;73.27;102121.19;5986180;23;20093;-70
2022/02/09 12:28:19;;;;;;;4.30;4.10;;;;;;;10.73;74.04;102113.00;5997742;23;20239;-71
2022/02/09 12:30:47;;;;;;;4.30;4.10;;;;;;;10.82;72.66;102094.34;6021715;23;20085;-71
2022/02/09 12:33:24;;;;;;;4.40;4.20;;;;;;;9.68;72.99;101944.63;6012738;23;20026;-71
2022/02/09 12:35:52;;;;;;;4.30;4.10;;;;;;;10.01;73.25;102020.63;6011250;23;20666;-71
2022/02/09 12:38:30;;;;;;;5.05;4.85;;;;;;;10.62;73.20;102110.69;6015644;23;20027;-71
2022/02/09 12:41:19;;;;;;;4.60;4.30;;;;;;;10.58;73.89;102112.56;6022770;23;20050;-69
2022/02/09 12:43:52;;;;;;;4.25;4.05;;;;;;;11.03;73.15;102107.72;6013921;23;20018;-70
2022/02/09 12:46:21;;;;;;;5.60;5.32;;;;;;;10.73;72.11;102032.47;6025685;23;20097;-70
2022/02/09 12:48:49;;;;;;;4.40;4.20;;;;;;;10.70;71.17;101990.53;5998124;23;20021;-71
2022/02/09 12:51:28;;;;;;;4.57;4.38;;;;;;;11.40;68.23;102106.53;6026610;23;20134;-71
2022/02/09 12:54:00;;;;;;;4.40;4.20;;;;;;;11.20;68.52;102046.75;5982533;23;20586;-72
2022/02/09 12:56:35;;;;;;;4.57;4.38;;;;;;;11.02;67.29;101995.66;5990834;23;20761;-69
2022/02/09 12:59:06;;;;;;;5.68;5.45;;;;;;;11.23;67.00;102047.50;6014470;23;20015;-69
2022/02/09 13:01:52;;;;;;;4.60;4.38;;;;;;;11.14;66.81;102038.13;6021235;23;20427;-72
2022/02/09 13:04:38;;;;;;;4.60;4.40;;;;;;;11.22;67.21;102085.19;5979979;23;20011;-70
2022/02/09 13:07:24;;;;;;;4.65;4.45;;;;;;;10.56;67.87;101987.50;5985242;23;20050;-71
2022/02/09 13:09:53;;;;;;;5.47;5.28;;;;;;;11.02;68.59;102012.28;6020523;23;20031;-70
2022/02/09 13:12:28;;;;;;;4.55;4.35;;;;;;;11.76;67.47;102080.75;6021527;23;20094;-72
2022/02/09 13:15:09;;;;;;;4.55;4.35;;;;;;;11.57;65.94;102030.59;5998183;23;20065;-69
2022/02/09 13:17:58;;;;;;;5.10;4.80;;;;;;;11.65;64.61;102033.81;6005013;23;20015;-70
2022/02/09 13:23:33;;;;;;;5.05;4.85;;;;;;;12.05;63.87;102027.13;6002093;23;20041;-70
2022/02/09 14:14:46;;;;;;;5.00;4.80;;;;;;;9.82;72.43;102021.13;5989523;23;20019;-71
2022/02/09 14:47:15;;;;;;;5.03;4.82;;;;;;;10.20;70.56;101964.06;5996596;23;20512;-72
2022/02/09 14:47:50;;;;;;;4.50;4.30;;;;;;;10.62;69.19;102037.19;6002200;23;20031;-70
2022/02/09 14:58:03;;;;;;;5.10;4.90;;;;;;;10.73;69.36;102027.22;6006518;23;20018;-71
2022/02/09 15:00:31;;;;;;;4.45;4.25;;;;;;;10.25;67.79;101954.31;6017633;23;20114;-70
2022/02/09 15:08:18;;;;;;;4.60;4.40;;;;;;;10.09;67.37;101940.81;6013946;23;20015;-71
2022/02/09 15:11:04;;;;;;;5.13;4.93;;;;;;;10.64;68.20;102024.00;5967791;23;20108;-72
2022/02/09 15:14:04;;;;;;;4.47;4.28;;;;;;;10.65;69.04;102016.09;6007985;23;20917;-71
2022/02/09 15:16:52;;;;;;;4.90;4.70;;;;;;;10.33;69.34;101962.84;6021213;23;20519;-71
2022/02/09 15:19:27;;;;;;;4.47;4.28;;;;;;;10.47;69.05;101980.78;6024490;23;20023;-71
2022/02/09 15:22:02;;;;;;;4.45;4.25;;;;;;;10.51;68.49;102010.44;6002320;23;20031;-71
2022/02/09 15:24:38;;;;;;;4.60;4.40;;;;;;;10.43;69.14;102015.91;6038261;23;20084;-70
2022/02/09 15:27:06;;;;;;;4.50;4.30;;;;;;;10.46;69.64;102009.69;6013870;23;20033;-71
2022/02/09 15:29:36;;;;;;;4.40;4.20;;;;;;;10.34;70.04;101996.06;6017199;23;20057;-70
2022/02/09 15:32:08;;;;;;;4.63;4.43;;;;;;;10.34;70.60;102003.94;6024078;23;20093;-70
2022/02/09 15:34:45;;;;;;;4.55;4.35;;;;;;;9.78;70.19;101931.22;5996991;23;20018;-70
2022/02/09 15:37:39;;;;;;;6.22;5.93;;;;;;;10.17;69.66;101999.13;6021441;23;20018;-71
2022/02/09 15:40:10;;;;;;;5.00;4.80;;;;;;;9.60;69.48;101926.50;6028971;23;20089;-70
2022/02/09 15:43:01;;;;;;;4.40;4.20;;;;;;;9.67;69.80;101943.78;6019582;23;20063;-71
2022/02/09 15:56:56;;;;;;;4.30;4.10;;;;;;;9.58;71.79;101994.69;6020850;23;20007;-71
2022/02/09 16:05:36;;;;;;;5.82;5.57;;;;;;;9.47;72.07;101988.03;5965321;23;20023;-71
2022/02/09 16:05:40;;;;;;;4.35;4.15;;;;;;;9.42;72.49;101995.13;5994509;23;20007;-71
2022/02/09 16:11:03;;;;;;;4.72;4.53;;;;;;;9.18;73.61;101990.50;6020923;23;20018;-70
2022/02/09 16:24:06;;;;;;;5.47;5.28;;;;;;;8.66;75.60;101975.22;6008538;23;20030;-69
2022/02/09 16:37:44;;;;;;;4.28;4.07;;;;;;;8.22;78.33;101972.69;5990531;23;20029;-70
2022/02/09 16:48:25;;;;;;;4.20;4.00;;;;;;;7.76;79.43;101971.91;6013675;23;20030;-69
2022/02/09 16:50:52;;;;;;;4.20;4.00;;;;;;;7.39;80.21;101935.16;5984907;23;20375;-69
2022/02/09 16:53:34;;;;;;;4.28;4.07;;;;;;;7.56;80.31;101976.66;6023440;23;20025;-69
2022/02/09 16:56:24;;;;;;;5.60;5.40;;;;;;;6.98;80.86;101897.66;5994596;23;20086;-68
2022/02/09 17:21:13;;;;;;;4.10;3.90;;;;;;;6.45;85.07;101926.31;6011062;23;20799;-69
2022/02/09 17:23:40;;;;;;;4.32;4.13;;;;;;;6.33;85.01;101921.31;5997746;23;20078;-69
2022/02/09 17:26:08;;;;;;;4.25;4.05;;;;;;;6.57;85.65;101970.50;5986681;23;20022;-69
2022/02/09 17:28:34;;;;;;;4.60;4.40;;;;;;;6.21;85.21;101921.47;6028969;23;20015;-69
2022/02/09 17:31:14;;;;;;;4.55;4.35;;;;;;;6.43;86.25;101964.59;6007510;23;20085;-68
2022/02/09 17:38:53;;;;;;;4.53;4.32;;;;;;;6.37;88.39;101976.00;5994090;23;20034;-69
2022/02/09 17:57:46;;;;;;;4.10;3.90;;;;;;;5.73;89.18;101979.38;5997769;23;20031;-69
2022/02/09 18:00:17;;;;;;;4.05;3.85;;;;;;;5.67;89.32;101984.66;6014601;23;20230;-69
2022/02/09 18:02:47;;;;;;;4.47;4.28;;;;;;;5.45;89.88;101945.81;5998550;23;20026;-70
2022/02/09 18:07:56;;;;;;;5.55;5.35;;;;;;;5.50;91.44;101962.28;6017810;23;20015;-69
2022/02/09 18:13:15;;;;;;;5.15;4.95;;;;;;;5.09;91.10;101895.91;6000978;23;20773;-71
2022/02/09 18:45:26;;;;;;;4.10;3.90;;;;;;;4.88;94.08;101902.16;5984913;23;19938;-70
2022/02/09 18:57:40;;;;;;;3.90;3.75;;;;;;;4.99;96.16;101874.31;5936789;24;20083;-70
2022/02/09 19:04:50;;;;;;;3.70;3.60;;;;;;;5.82;95.68;101945.41;6030615;23;20025;-69
2022/02/09 19:31:09;;;;;;;3.97;3.78;;;;;;;6.20;91.86;101933.66;6026476;23;20094;-69
2022/02/09 19:47:18;;;;;;;4.78;4.53;;;;;;;6.06;91.87;101923.44;5994880;23;20030;-69
2022/02/09 19:57:12;;;;;;;3.70;3.60;;;;;;;5.85;92.45;101901.06;6022631;23;19915;-68
2022/02/09 19:59:40;;;;;;;5.03;4.78;;;;;;;5.44;92.84;101834.78;6011771;23;20019;-69
2022/02/09 20:02:08;;;;;;;4.40;4.20;;;;;;;5.86;92.83;101915.00;5998052;23;20547;-69
2022/02/09 20:04:39;;;;;;;4.20;4.00;;;;;;;5.50;92.69;101865.94;5994471;23;20029;-70
2022/02/09 20:07:07;;;;;;;4.07;3.90;;;;;;;5.82;93.06;101914.16;5987155;23;20033;-70
2022/02/09 20:09:51;;;;;;;3.80;3.70;;;;;;;5.68;93.59;101895.25;6021477;23;20067;-70
2022/02/09 20:12:35;;;;;;;5.00;4.80;;;;;;;5.78;93.71;101907.28;6022667;23;20032;-70
2022/02/09 20:15:01;;;;;;;4.10;3.90;;;;;;;5.75;93.16;101908.19;5999918;23;20035;-72
2022/02/09 20:17:28;;;;;;;5.60;5.40;;;;;;;5.29;93.76;101829.75;5987351;23;20035;-68
2022/02/09 20:19:57;;;;;;;3.70;3.60;;;;;;;5.72;94.62;101895.19;6023820;23;20093;-68
2022/02/09 20:22:24;;;;;;;5.22;5.03;;;;;;;5.26;94.24;101835.84;6001431;23;20026;-69
2022/02/09 20:24:50;;;;;;;4.00;3.80;;;;;;;5.72;94.62;101902.13;6019887;23;20015;-68
2022/02/09 20:27:20;;;;;;;3.95;3.80;;;;;;;5.39;94.77;101847.84;6010623;23;20540;-71
2022/02/09 20:29:48;;;;;;;4.00;3.80;;;;;;;5.78;94.68;101904.66;6017327;23;20015;-69
2022/02/09 20:32:30;;;;;;;4.00;3.83;;;;;;;5.83;94.15;101896.78;6023194;23;20018;-70
2022/02/09 20:34:59;;;;;;;3.80;3.70;;;;;;;5.75;94.76;101876.03;6016674;23;20027;-70
2022/02/09 20:37:27;;;;;;;4.20;4.00;;;;;;;5.48;95.04;101844.28;5992312;23;20033;-70
2022/02/09 20:40:00;;;;;;;3.92;3.72;;;;;;;5.31;94.48;101817.56;6015763;23;20046;-69
2022/02/09 20:42:27;;;;;;;5.45;5.25;;;;;;;5.13;94.35;101793.53;5995403;23;20026;-70
2022/02/09 20:47:56;;;;;;;3.70;3.60;;;;;;;5.35;94.43;101845.28;6007306;23;20026;-69
2022/02/09 20:50:23;;;;;;;5.05;4.85;;;;;;;5.56;95.44;101865.00;5986871;23;20024;-69
2022/02/09 20:52:49;;;;;;;3.78;3.67;;;;;;;5.66;95.59;101886.59;6017815;23;20019;-69
2022/02/09 20:55:16;;;;;;;3.95;3.75;;;;;;;5.16;95.23;101823.84;6022408;23;20035;-70
2022/02/09 20:57:42;;;;;;;4.00;3.80;;;;;;;5.62;94.94;101880.56;6020557;23;20027;-70
2022/02/09 21:00:19;;;;;;;3.80;3.70;;;;;;;5.45;95.53;101865.13;6022784;23;20065;-69
2022/02/09 21:08:31;;;;;;;4.05;3.83;;;;;;;5.32;95.28;101803.69;6024487;23;20715;-70
2022/02/09 21:10:56;;;;;;;3.88;3.70;;;;;;;5.91;95.51;101898.41;5989986;23;20036;-69
2022/02/09 21:16:37;;;;;;;5.30;5.10;;;;;;;5.49;95.05;101786.13;5965628;23;20543;-69
2022/02/09 21:19:25;;;;;;;3.92;3.72;;;;;;;5.77;95.23;101811.75;5995437;23;20041;-70
2022/02/09 21:54:55;;;;;;;4.95;4.75;;;;;;;5.44;95.54;101823.50;6015396;23;20101;-71
2022/02/09 22:00:20;;;;;;;3.50;3.40;;;;;;;5.51;95.47;101838.16;6031126;23;20027;-70
2022/02/09 22:19:17;;;;;;;6.70;6.30;;;;;;;4.22;97.01;101613.44;6012141;23;20312;-71
2022/02/09 22:22:30;;;;;;;4.40;4.20;;;;;;;5.58;98.34;101811.16;6023311;23;20099;-69
2022/02/09 22:27:46;;;;;;;3.72;3.63;;;;;;;5.66;97.34;101801.50;6030916;23;20463;-69
2022/02/09 22:49:15;;;;;;;3.78;3.67;;;;;;;4.95;99.01;101723.47;6001688;23;20098;-70
2022/02/09 22:56:54;;;;;;;4.43;4.22;;;;;;;5.25;98.76;101797.72;6024369;23;20110;-69
2022/02/09 22:59:47;;;;;;;4.10;3.90;;;;;;;5.26;99.40;101796.81;6001010;23;20030;-68
2022/02/09 23:02:14;;;;;;;4.43;4.22;;;;;;;5.29;99.06;101796.78;6032362;23;20026;-69
2022/02/09 23:04:54;;;;;;;5.05;4.85;;;;;;;5.30;99.66;101790.69;5994029;23;20035;-70
2022/02/09 23:07:56;;;;;;;3.90;3.70;;;;;;;5.32;99.67;101788.06;6028103;23;20480;-69
2022/02/09 23:12:43;;;;;;;5.88;5.57;;;;;;;5.34;98.85;101774.16;6027565;23;20094;-68
2022/02/09 23:53:11;;;;;;;4.68;4.47;;;;;;;4.63;98.58;101631.13;6025880;23;20021;-69
